sensor_id;sensor_type;location;lat;lon;timestamp;temperature;humidity
25128;DHT22;13107;51.304;6.866;2024-02-26T00:00:33;6.60;99.90
25128;DHT22;13107;51.304;6.866;2024-02-26T00:04:36;6.60;99.90
25128;DHT22;13107;51.304;6.866;2024-02-26T00:08:38;6.70;99.90
25128;DHT22;13107;51.304;6.866;2024-02-26T00:12:40;6.80;99.90
25128;DHT22;13107;51.304;6.866;2024-02-26T00:16:42;6.80;99.90
25128;DHT22;13107;51.304;6.866;2024-02-26T00:20:44;6.80;99.90
25128;DHT22;13107;51.304;6.866;2024-02-26T00:24:46;6.90;99.90
25128;DHT22;13107;51.304;6.866;2024-02-26T00:28:48;7.00;99.90
25128;DHT22;13107;51.304;6.866;2024-02-26T00:32:49;7.10;99.90
25128;DHT22;13107;51.304;6.866;2024-02-26T00:36:51;7.20;99.90
25128;DHT22;13107;51.304;6.866;2024-02-26T00:40:53;7.20;99.90
25128;DHT22;13107;51.304;6.866;2024-02-26T00:44:55;7.00;99.90
25128;DHT22;13107;51.304;6.866;2024-02-26T00:48:56;6.90;99.90
25128;DHT22;13107;51.304;6.866;2024-02-26T00:52:59;6.80;99.90
25128;DHT22;13107;51.304;6.866;2024-02-26T00:57:01;6.70;99.90
25128;DHT22;13107;51.304;6.866;2024-02-26T01:01:03;6.80;99.90
25128;DHT22;13107;51.304;6.866;2024-02-26T01:05:08;6.70;99.90
25128;DHT22;13107;51.304;6.866;2024-02-26T01:09:13;6.70;99.90
25128;DHT22;13107;51.304;6.866;2024-02-26T01:13:15;6.70;99.90
25128;DHT22;13107;51.304;6.866;2024-02-26T01:17:17;6.70;99.90
25128;DHT22;13107;51.304;6.866;2024-02-26T01:21:19;6.50;99.90
25128;DHT22;13107;51.304;6.866;2024-02-26T01:25:21;6.40;99.90
25128;DHT22;13107;51.304;6.866;2024-02-26T01:29:23;6.30;99.90
25128;DHT22;13107;51.304;6.866;2024-02-26T01:33:26;6.30;99.90
25128;DHT22;13107;51.304;6.866;2024-02-26T01:37:33;6.20;99.90
25128;DHT22;13107;51.304;6.866;2024-02-26T01:41:34;6.20;99.90
25128;DHT22;13107;51.304;6.866;2024-02-26T01:45:36;6.10;99.90
25128;DHT22;13107;51.304;6.866;2024-02-26T01:49:38;6.10;99.90
25128;DHT22;13107;51.304;6.866;2024-02-26T01:53:41;6.10;99.90
25128;DHT22;13107;51.304;6.866;2024-02-26T01:57:45;5.90;99.90
25128;DHT22;13107;51.304;6.866;2024-02-26T02:01:49;5.90;99.90
25128;DHT22;13107;51.304;6.866;2024-02-26T02:05:53;5.90;99.90
25128;DHT22;13107;51.304;6.866;2024-02-26T02:09:55;5.90;99.90
25128;DHT22;13107;51.304;6.866;2024-02-26T02:13:57;5.80;99.90
25128;DHT22;13107;51.304;6.866;2024-02-26T02:17:59;5.80;99.90
25128;DHT22;13107;51.304;6.866;2024-02-26T02:22:01;5.80;99.90
25128;DHT22;13107;51.304;6.866;2024-02-26T02:26:03;5.70;99.90
25128;DHT22;13107;51.304;6.866;2024-02-26T02:30:05;5.70;99.90
25128;DHT22;13107;51.304;6.866;2024-02-26T02:34:10;5.60;99.90
25128;DHT22;13107;51.304;6.866;2024-02-26T02:38:12;5.60;99.90
25128;DHT22;13107;51.304;6.866;2024-02-26T02:42:14;5.50;99.90
25128;DHT22;13107;51.304;6.866;2024-02-26T02:46:16;5.40;99.90
25128;DHT22;13107;51.304;6.866;2024-02-26T02:50:18;5.40;99.90
25128;DHT22;13107;51.304;6.866;2024-02-26T02:54:20;5.30;99.90
25128;DHT22;13107;51.304;6.866;2024-02-26T02:58:22;5.20;99.90
25128;DHT22;13107;51.304;6.866;2024-02-26T03:02:24;5.20;99.90
25128;DHT22;13107;51.304;6.866;2024-02-26T03:06:29;5.10;99.90
25128;DHT22;13107;51.304;6.866;2024-02-26T03:10:31;5.10;99.90
25128;DHT22;13107;51.304;6.866;2024-02-26T03:14:32;5.00;99.90
25128;DHT22;13107;51.304;6.866;2024-02-26T03:18:34;5.10;99.90
25128;DHT22;13107;51.304;6.866;2024-02-26T03:22:39;5.00;99.90
25128;DHT22;13107;51.304;6.866;2024-02-26T03:26:41;5.00;99.90
25128;DHT22;13107;51.304;6.866;2024-02-26T03:30:43;5.00;99.90
25128;DHT22;13107;51.304;6.866;2024-02-26T03:34:45;5.00;99.90
25128;DHT22;13107;51.304;6.866;2024-02-26T03:38:48;5.00;99.90
25128;DHT22;13107;51.304;6.866;2024-02-26T03:42:49;4.90;99.90
25128;DHT22;13107;51.304;6.866;2024-02-26T03:46:52;4.80;99.90
25128;DHT22;13107;51.304;6.866;2024-02-26T03:50:53;4.80;99.90
25128;DHT22;13107;51.304;6.866;2024-02-26T03:54:55;4.80;99.90
25128;DHT22;13107;51.304;6.866;2024-02-26T03:58:57;4.80;99.90
25128;DHT22;13107;51.304;6.866;2024-02-26T04:03:01;4.80;99.90
25128;DHT22;13107;51.304;6.866;2024-02-26T04:07:03;4.70;99.90
25128;DHT22;13107;51.304;6.866;2024-02-26T04:11:05;4.70;99.90
25128;DHT22;13107;51.304;6.866;2024-02-26T04:15:09;4.70;99.90
25128;DHT22;13107;51.304;6.866;2024-02-26T04:19:12;4.60;99.90
25128;DHT22;13107;51.304;6.866;2024-02-26T04:23:14;4.60;99.90
25128;DHT22;13107;51.304;6.866;2024-02-26T04:27:16;4.60;99.90
25128;DHT22;13107;51.304;6.866;2024-02-26T04:31:18;4.60;99.90
25128;DHT22;13107;51.304;6.866;2024-02-26T04:35:20;4.60;99.90
25128;DHT22;13107;51.304;6.866;2024-02-26T04:39:22;4.60;99.90
25128;DHT22;13107;51.304;6.866;2024-02-26T04:43:24;4.60;99.90
25128;DHT22;13107;51.304;6.866;2024-02-26T04:47:26;4.60;99.90
25128;DHT22;13107;51.304;6.866;2024-02-26T04:51:27;4.50;99.90
25128;DHT22;13107;51.304;6.866;2024-02-26T04:55:29;4.50;99.90
25128;DHT22;13107;51.304;6.866;2024-02-26T04:59:31;4.50;99.90
25128;DHT22;13107;51.304;6.866;2024-02-26T05:03:33;4.50;99.90
25128;DHT22;13107;51.304;6.866;2024-02-26T05:07:41;4.50;99.90
25128;DHT22;13107;51.304;6.866;2024-02-26T05:11:46;4.50;99.90
25128;DHT22;13107;51.304;6.866;2024-02-26T05:15:48;4.50;99.90
25128;DHT22;13107;51.304;6.866;2024-02-26T05:19:54;4.50;99.90
25128;DHT22;13107;51.304;6.866;2024-02-26T05:23:56;4.40;99.90
25128;DHT22;13107;51.304;6.866;2024-02-26T05:27:58;4.50;99.90
25128;DHT22;13107;51.304;6.866;2024-02-26T05:31:59;4.40;99.90
25128;DHT22;13107;51.304;6.866;2024-02-26T05:36:01;4.40;99.90
25128;DHT22;13107;51.304;6.866;2024-02-26T05:40:06;4.40;99.90
25128;DHT22;13107;51.304;6.866;2024-02-26T05:44:08;4.30;99.90
25128;DHT22;13107;51.304;6.866;2024-02-26T05:48:12;4.40;99.90
25128;DHT22;13107;51.304;6.866;2024-02-26T05:52:14;4.30;99.90
25128;DHT22;13107;51.304;6.866;2024-02-26T05:56:16;4.30;99.90
25128;DHT22;13107;51.304;6.866;2024-02-26T06:00:18;4.30;99.90
25128;DHT22;13107;51.304;6.866;2024-02-26T06:04:20;4.30;99.90
25128;DHT22;13107;51.304;6.866;2024-02-26T06:08:22;4.30;99.90
25128;DHT22;13107;51.304;6.866;2024-02-26T06:12:24;4.30;99.90
25128;DHT22;13107;51.304;6.866;2024-02-26T06:16:26;4.30;99.90
25128;DHT22;13107;51.304;6.866;2024-02-26T06:20:27;4.30;99.90
25128;DHT22;13107;51.304;6.866;2024-02-26T06:24:29;4.30;99.90
25128;DHT22;13107;51.304;6.866;2024-02-26T06:28:31;4.40;99.90
25128;DHT22;13107;51.304;6.866;2024-02-26T06:32:35;4.30;99.90
25128;DHT22;13107;51.304;6.866;2024-02-26T06:36:37;4.30;99.90
25128;DHT22;13107;51.304;6.866;2024-02-26T06:40:39;4.30;99.90
25128;DHT22;13107;51.304;6.866;2024-02-26T06:44:40;4.30;99.90
25128;DHT22;13107;51.304;6.866;2024-02-26T06:48:42;4.30;99.90
25128;DHT22;13107;51.304;6.866;2024-02-26T06:52:44;4.40;99.90
25128;DHT22;13107;51.304;6.866;2024-02-26T06:56:48;4.30;99.90
25128;DHT22;13107;51.304;6.866;2024-02-26T07:00:50;4.30;99.90
25128;DHT22;13107;51.304;6.866;2024-02-26T07:04:51;4.30;99.90
25128;DHT22;13107;51.304;6.866;2024-02-26T07:08:53;4.30;99.90
25128;DHT22;13107;51.304;6.866;2024-02-26T07:12:55;4.30;99.90
25128;DHT22;13107;51.304;6.866;2024-02-26T07:16:57;4.40;99.90
25128;DHT22;13107;51.304;6.866;2024-02-26T07:21:02;4.50;99.90
25128;DHT22;13107;51.304;6.866;2024-02-26T07:25:04;4.50;99.90
25128;DHT22;13107;51.304;6.866;2024-02-26T07:29:08;4.50;99.90
25128;DHT22;13107;51.304;6.866;2024-02-26T07:33:10;4.50;99.90
25128;DHT22;13107;51.304;6.866;2024-02-26T07:37:12;4.50;99.90
25128;DHT22;13107;51.304;6.866;2024-02-26T07:41:14;4.60;99.90
25128;DHT22;13107;51.304;6.866;2024-02-26T07:45:16;4.60;99.90
25128;DHT22;13107;51.304;6.866;2024-02-26T07:49:20;4.60;99.90
25128;DHT22;13107;51.304;6.866;2024-02-26T07:53:22;4.60;99.90
25128;DHT22;13107;51.304;6.866;2024-02-26T07:57:23;4.70;99.90
25128;DHT22;13107;51.304;6.866;2024-02-26T08:01:25;4.60;99.90
25128;DHT22;13107;51.304;6.866;2024-02-26T08:05:28;4.70;99.90
25128;DHT22;13107;51.304;6.866;2024-02-26T08:09:29;4.80;99.90
25128;DHT22;13107;51.304;6.866;2024-02-26T08:13:31;4.80;99.90
25128;DHT22;13107;51.304;6.866;2024-02-26T08:17:33;4.80;99.90
25128;DHT22;13107;51.304;6.866;2024-02-26T08:21:35;4.80;99.90
25128;DHT22;13107;51.304;6.866;2024-02-26T08:25:38;4.80;99.90
25128;DHT22;13107;51.304;6.866;2024-02-26T08:29:40;4.80;99.90
25128;DHT22;13107;51.304;6.866;2024-02-26T08:33:41;4.90;99.90
25128;DHT22;13107;51.304;6.866;2024-02-26T08:37:47;4.90;99.90
25128;DHT22;13107;51.304;6.866;2024-02-26T08:41:49;4.90;99.90
25128;DHT22;13107;51.304;6.866;2024-02-26T08:45:51;4.90;99.90
25128;DHT22;13107;51.304;6.866;2024-02-26T08:49:54;4.90;99.90
25128;DHT22;13107;51.304;6.866;2024-02-26T08:53:55;5.00;99.90
25128;DHT22;13107;51.304;6.866;2024-02-26T08:57:58;5.00;99.90
25128;DHT22;13107;51.304;6.866;2024-02-26T09:01:59;5.00;99.90
25128;DHT22;13107;51.304;6.866;2024-02-26T09:06:01;5.00;99.90
25128;DHT22;13107;51.304;6.866;2024-02-26T09:10:05;5.00;99.90
25128;DHT22;13107;51.304;6.866;2024-02-26T09:14:07;5.00;99.90
25128;DHT22;13107;51.304;6.866;2024-02-26T09:18:09;5.00;99.90
25128;DHT22;13107;51.304;6.866;2024-02-26T09:22:11;5.00;99.90
25128;DHT22;13107;51.304;6.866;2024-02-26T09:26:13;4.90;99.90
25128;DHT22;13107;51.304;6.866;2024-02-26T09:30:16;4.90;99.90
25128;DHT22;13107;51.304;6.866;2024-02-26T09:34:18;5.00;99.90
25128;DHT22;13107;51.304;6.866;2024-02-26T09:38:20;5.10;99.90
25128;DHT22;13107;51.304;6.866;2024-02-26T09:42:25;5.00;99.90
25128;DHT22;13107;51.304;6.866;2024-02-26T09:46:28;5.10;99.90
25128;DHT22;13107;51.304;6.866;2024-02-26T09:50:30;5.10;99.90
25128;DHT22;13107;51.304;6.866;2024-02-26T09:54:32;5.20;99.90
25128;DHT22;13107;51.304;6.866;2024-02-26T09:58:35;5.10;99.90
25128;DHT22;13107;51.304;6.866;2024-02-26T10:02:39;5.20;99.90
25128;DHT22;13107;51.304;6.866;2024-02-26T10:06:41;5.20;99.90
25128;DHT22;13107;51.304;6.866;2024-02-26T10:10:46;5.30;99.90
25128;DHT22;13107;51.304;6.866;2024-02-26T10:14:48;5.30;99.90
25128;DHT22;13107;51.304;6.866;2024-02-26T10:18:51;5.40;99.90
25128;DHT22;13107;51.304;6.866;2024-02-26T10:22:56;5.40;99.90
25128;DHT22;13107;51.304;6.866;2024-02-26T10:26:58;5.40;99.90
25128;DHT22;13107;51.304;6.866;2024-02-26T10:31:00;5.30;99.90
25128;DHT22;13107;51.304;6.866;2024-02-26T10:35:02;5.50;99.90
25128;DHT22;13107;51.304;6.866;2024-02-26T10:39:05;5.50;99.90
25128;DHT22;13107;51.304;6.866;2024-02-26T10:43:07;5.60;99.90
25128;DHT22;13107;51.304;6.866;2024-02-26T10:47:09;5.50;99.90
25128;DHT22;13107;51.304;6.866;2024-02-26T10:51:12;5.60;99.90
25128;DHT22;13107;51.304;6.866;2024-02-26T10:55:18;5.60;99.90
25128;DHT22;13107;51.304;6.866;2024-02-26T10:59:23;5.60;99.90
25128;DHT22;13107;51.304;6.866;2024-02-26T11:03:25;5.70;99.90
25128;DHT22;13107;51.304;6.866;2024-02-26T11:07:28;5.70;99.90
25128;DHT22;13107;51.304;6.866;2024-02-26T11:11:32;5.70;99.90
25128;DHT22;13107;51.304;6.866;2024-02-26T11:15:36;5.80;99.90
25128;DHT22;13107;51.304;6.866;2024-02-26T11:19:39;5.70;99.90
25128;DHT22;13107;51.304;6.866;2024-02-26T11:23:43;5.90;99.90
25128;DHT22;13107;51.304;6.866;2024-02-26T11:27:54;5.90;99.90
25128;DHT22;13107;51.304;6.866;2024-02-26T11:31:59;5.80;99.90
25128;DHT22;13107;51.304;6.866;2024-02-26T11:36:11;6.10;99.90
25128;DHT22;13107;51.304;6.866;2024-02-26T11:40:14;6.20;99.90
25128;DHT22;13107;51.304;6.866;2024-02-26T11:44:28;6.30;99.90
25128;DHT22;13107;51.304;6.866;2024-02-26T11:48:32;6.30;99.90
25128;DHT22;13107;51.304;6.866;2024-02-26T11:52:34;6.20;99.90
25128;DHT22;13107;51.304;6.866;2024-02-26T11:56:40;6.20;99.90
25128;DHT22;13107;51.304;6.866;2024-02-26T12:00:42;6.00;99.90
25128;DHT22;13107;51.304;6.866;2024-02-26T12:04:44;6.00;99.90
25128;DHT22;13107;51.304;6.866;2024-02-26T12:08:46;6.00;99.90
25128;DHT22;13107;51.304;6.866;2024-02-26T12:12:49;6.00;99.90
25128;DHT22;13107;51.304;6.866;2024-02-26T12:16:51;6.00;99.90
25128;DHT22;13107;51.304;6.866;2024-02-26T12:21:01;6.00;99.90
25128;DHT22;13107;51.304;6.866;2024-02-26T12:25:04;6.10;99.90
25128;DHT22;13107;51.304;6.866;2024-02-26T12:29:07;6.10;99.90
25128;DHT22;13107;51.304;6.866;2024-02-26T12:33:09;6.30;99.90
25128;DHT22;13107;51.304;6.866;2024-02-26T12:37:12;6.40;99.90
25128;DHT22;13107;51.304;6.866;2024-02-26T12:41:14;6.50;99.90
25128;DHT22;13107;51.304;6.866;2024-02-26T12:45:16;6.70;99.90
25128;DHT22;13107;51.304;6.866;2024-02-26T12:49:18;6.80;99.90
25128;DHT22;13107;51.304;6.866;2024-02-26T12:53:20;6.80;99.90
25128;DHT22;13107;51.304;6.866;2024-02-26T12:57:23;6.90;99.90
25128;DHT22;13107;51.304;6.866;2024-02-26T13:01:26;7.10;99.90
25128;DHT22;13107;51.304;6.866;2024-02-26T13:05:28;7.10;99.90
25128;DHT22;13107;51.304;6.866;2024-02-26T13:09:34;7.00;99.90
25128;DHT22;13107;51.304;6.866;2024-02-26T13:13:39;7.00;99.90
25128;DHT22;13107;51.304;6.866;2024-02-26T13:17:41;6.90;99.90
25128;DHT22;13107;51.304;6.866;2024-02-26T13:21:43;6.90;99.90
25128;DHT22;13107;51.304;6.866;2024-02-26T13:25:45;6.90;99.90
25128;DHT22;13107;51.304;6.866;2024-02-26T13:29:47;6.80;99.90
25128;DHT22;13107;51.304;6.866;2024-02-26T13:33:49;7.00;99.90
25128;DHT22;13107;51.304;6.866;2024-02-26T13:37:51;6.80;99.90
25128;DHT22;13107;51.304;6.866;2024-02-26T13:41:53;6.80;99.90
25128;DHT22;13107;51.304;6.866;2024-02-26T13:45:56;6.90;99.90
25128;DHT22;13107;51.304;6.866;2024-02-26T13:49:58;6.80;99.90
25128;DHT22;13107;51.304;6.866;2024-02-26T13:54:01;6.80;99.90
25128;DHT22;13107;51.304;6.866;2024-02-26T13:58:03;6.90;99.90
25128;DHT22;13107;51.304;6.866;2024-02-26T14:02:04;6.90;99.90
25128;DHT22;13107;51.304;6.866;2024-02-26T14:06:06;7.00;99.90
25128;DHT22;13107;51.304;6.866;2024-02-26T14:10:11;7.00;99.90
25128;DHT22;13107;51.304;6.866;2024-02-26T14:14:13;7.20;99.90
25128;DHT22;13107;51.304;6.866;2024-02-26T14:18:15;7.30;99.90
25128;DHT22;13107;51.304;6.866;2024-02-26T14:22:17;7.20;99.90
25128;DHT22;13107;51.304;6.866;2024-02-26T14:26:19;7.20;99.90
25128;DHT22;13107;51.304;6.866;2024-02-26T14:30:21;7.20;99.90
25128;DHT22;13107;51.304;6.866;2024-02-26T14:34:23;7.10;99.90
25128;DHT22;13107;51.304;6.866;2024-02-26T14:38:25;7.00;99.90
25128;DHT22;13107;51.304;6.866;2024-02-26T14:42:27;7.00;99.90
25128;DHT22;13107;51.304;6.866;2024-02-26T14:46:29;7.00;99.90
25128;DHT22;13107;51.304;6.866;2024-02-26T14:50:31;7.00;99.90
25128;DHT22;13107;51.304;6.866;2024-02-26T14:54:33;7.00;99.90
25128;DHT22;13107;51.304;6.866;2024-02-26T14:58:39;7.00;99.90
25128;DHT22;13107;51.304;6.866;2024-02-26T15:02:40;7.00;99.90
25128;DHT22;13107;51.304;6.866;2024-02-26T15:06:42;7.10;99.90
25128;DHT22;13107;51.304;6.866;2024-02-26T15:10:44;7.00;99.90
25128;DHT22;13107;51.304;6.866;2024-02-26T15:14:50;7.00;99.90
25128;DHT22;13107;51.304;6.866;2024-02-26T15:18:52;7.00;99.90
25128;DHT22;13107;51.304;6.866;2024-02-26T15:22:54;7.00;99.90
25128;DHT22;13107;51.304;6.866;2024-02-26T15:26:55;7.00;99.90
25128;DHT22;13107;51.304;6.866;2024-02-26T15:30:58;7.00;99.90
25128;DHT22;13107;51.304;6.866;2024-02-26T15:35:00;6.90;99.90
25128;DHT22;13107;51.304;6.866;2024-02-26T15:39:02;6.90;99.90
25128;DHT22;13107;51.304;6.866;2024-02-26T15:43:05;6.90;99.90
25128;DHT22;13107;51.304;6.866;2024-02-26T15:47:07;6.90;99.90
25128;DHT22;13107;51.304;6.866;2024-02-26T15:51:18;6.90;99.90
25128;DHT22;13107;51.304;6.866;2024-02-26T15:55:21;6.80;99.90
25128;DHT22;13107;51.304;6.866;2024-02-26T15:59:23;6.80;99.90
25128;DHT22;13107;51.304;6.866;2024-02-26T16:03:26;6.80;99.90
25128;DHT22;13107;51.304;6.866;2024-02-26T16:07:32;6.70;99.90
25128;DHT22;13107;51.304;6.866;2024-02-26T16:11:36;6.70;99.90
25128;DHT22;13107;51.304;6.866;2024-02-26T16:15:40;6.60;99.90
25128;DHT22;13107;51.304;6.866;2024-02-26T16:19:44;6.60;99.90
25128;DHT22;13107;51.304;6.866;2024-02-26T16:23:46;6.50;99.90
25128;DHT22;13107;51.304;6.866;2024-02-26T16:27:48;6.50;99.90
25128;DHT22;13107;51.304;6.866;2024-02-26T16:31:50;6.40;99.90
25128;DHT22;13107;51.304;6.866;2024-02-26T16:35:52;6.50;99.90
25128;DHT22;13107;51.304;6.866;2024-02-26T16:39:58;6.50;99.90
25128;DHT22;13107;51.304;6.866;2024-02-26T16:44:01;6.50;99.90
25128;DHT22;13107;51.304;6.866;2024-02-26T16:48:03;6.50;99.90
25128;DHT22;13107;51.304;6.866;2024-02-26T16:52:06;6.40;99.90
25128;DHT22;13107;51.304;6.866;2024-02-26T16:56:11;6.50;99.90
25128;DHT22;13107;51.304;6.866;2024-02-26T17:00:13;6.50;99.90
25128;DHT22;13107;51.304;6.866;2024-02-26T17:04:17;6.50;99.90
25128;DHT22;13107;51.304;6.866;2024-02-26T17:08:19;6.50;99.90
25128;DHT22;13107;51.304;6.866;2024-02-26T17:12:22;6.50;99.90
25128;DHT22;13107;51.304;6.866;2024-02-26T17:16:24;6.50;99.90
25128;DHT22;13107;51.304;6.866;2024-02-26T17:20:26;6.60;99.90
25128;DHT22;13107;51.304;6.866;2024-02-26T17:24:27;6.50;99.90
25128;DHT22;13107;51.304;6.866;2024-02-26T17:28:29;6.60;99.90
25128;DHT22;13107;51.304;6.866;2024-02-26T17:32:31;6.60;99.90
25128;DHT22;13107;51.304;6.866;2024-02-26T17:36:33;6.60;99.90
25128;DHT22;13107;51.304;6.866;2024-02-26T17:40:36;6.50;99.90
25128;DHT22;13107;51.304;6.866;2024-02-26T17:44:38;6.50;99.90
25128;DHT22;13107;51.304;6.866;2024-02-26T17:48:40;6.40;99.90
25128;DHT22;13107;51.304;6.866;2024-02-26T17:52:44;6.50;99.90
25128;DHT22;13107;51.304;6.866;2024-02-26T17:56:46;6.50;99.90
25128;DHT22;13107;51.304;6.866;2024-02-26T18:00:48;6.50;99.90
25128;DHT22;13107;51.304;6.866;2024-02-26T18:04:51;6.40;99.90
25128;DHT22;13107;51.304;6.866;2024-02-26T18:08:53;6.40;99.90
25128;DHT22;13107;51.304;6.866;2024-02-26T18:12:55;6.40;99.90
25128;DHT22;13107;51.304;6.866;2024-02-26T18:17:00;6.40;99.90
25128;DHT22;13107;51.304;6.866;2024-02-26T18:21:02;6.40;99.90
25128;DHT22;13107;51.304;6.866;2024-02-26T18:25:04;6.40;99.90
25128;DHT22;13107;51.304;6.866;2024-02-26T18:29:06;6.40;99.90
25128;DHT22;13107;51.304;6.866;2024-02-26T18:33:08;6.40;99.90
25128;DHT22;13107;51.304;6.866;2024-02-26T18:37:10;6.40;99.90
25128;DHT22;13107;51.304;6.866;2024-02-26T18:41:22;6.40;99.90
25128;DHT22;13107;51.304;6.866;2024-02-26T18:45:25;6.40;99.90
25128;DHT22;13107;51.304;6.866;2024-02-26T18:49:27;6.50;99.90
25128;DHT22;13107;51.304;6.866;2024-02-26T18:53:30;6.40;99.90
25128;DHT22;13107;51.304;6.866;2024-02-26T18:57:32;6.40;99.90
25128;DHT22;13107;51.304;6.866;2024-02-26T19:01:34;6.40;99.90
25128;DHT22;13107;51.304;6.866;2024-02-26T19:05:37;6.40;99.90
25128;DHT22;13107;51.304;6.866;2024-02-26T19:09:40;6.50;99.90
25128;DHT22;13107;51.304;6.866;2024-02-26T19:13:42;6.40;99.90
25128;DHT22;13107;51.304;6.866;2024-02-26T19:17:44;6.30;99.90
25128;DHT22;13107;51.304;6.866;2024-02-26T19:21:46;6.30;99.90
25128;DHT22;13107;51.304;6.866;2024-02-26T19:25:47;6.30;99.90
25128;DHT22;13107;51.304;6.866;2024-02-26T19:29:49;6.30;99.90
25128;DHT22;13107;51.304;6.866;2024-02-26T19:33:51;6.30;99.90
25128;DHT22;13107;51.304;6.866;2024-02-26T19:37:53;6.30;99.90
25128;DHT22;13107;51.304;6.866;2024-02-26T19:41:55;6.40;99.90
25128;DHT22;13107;51.304;6.866;2024-02-26T19:45:57;6.40;99.90
25128;DHT22;13107;51.304;6.866;2024-02-26T19:49:58;6.30;99.90
25128;DHT22;13107;51.304;6.866;2024-02-26T19:54:01;6.40;99.90
25128;DHT22;13107;51.304;6.866;2024-02-26T19:58:05;6.40;99.90
25128;DHT22;13107;51.304;6.866;2024-02-26T20:02:07;6.40;99.90
25128;DHT22;13107;51.304;6.866;2024-02-26T20:06:08;6.40;99.90
25128;DHT22;13107;51.304;6.866;2024-02-26T20:10:11;6.40;99.90
25128;DHT22;13107;51.304;6.866;2024-02-26T20:14:13;6.30;99.90
25128;DHT22;13107;51.304;6.866;2024-02-26T20:18:16;6.30;99.90
25128;DHT22;13107;51.304;6.866;2024-02-26T20:22:18;6.30;99.90
25128;DHT22;13107;51.304;6.866;2024-02-26T20:26:20;6.30;99.90
25128;DHT22;13107;51.304;6.866;2024-02-26T20:30:21;6.30;99.90
25128;DHT22;13107;51.304;6.866;2024-02-26T20:34:27;6.30;99.90
25128;DHT22;13107;51.304;6.866;2024-02-26T20:38:29;6.30;99.90
25128;DHT22;13107;51.304;6.866;2024-02-26T20:42:31;6.30;99.90
25128;DHT22;13107;51.304;6.866;2024-02-26T20:46:33;6.30;99.90
25128;DHT22;13107;51.304;6.866;2024-02-26T20:50:36;6.30;99.90
25128;DHT22;13107;51.304;6.866;2024-02-26T20:54:38;6.30;99.90
25128;DHT22;13107;51.304;6.866;2024-02-26T20:58:40;6.30;99.90
25128;DHT22;13107;51.304;6.866;2024-02-26T21:02:42;6.30;99.90
25128;DHT22;13107;51.304;6.866;2024-02-26T21:06:44;6.30;99.90
25128;DHT22;13107;51.304;6.866;2024-02-26T21:10:45;6.30;99.90
25128;DHT22;13107;51.304;6.866;2024-02-26T21:14:52;6.20;99.90
25128;DHT22;13107;51.304;6.866;2024-02-26T21:18:55;6.30;99.90
25128;DHT22;13107;51.304;6.866;2024-02-26T21:23:00;6.20;99.90
25128;DHT22;13107;51.304;6.866;2024-02-26T21:27:03;6.30;99.90
25128;DHT22;13107;51.304;6.866;2024-02-26T21:31:05;6.20;99.90
25128;DHT22;13107;51.304;6.866;2024-02-26T21:35:08;6.20;99.90
25128;DHT22;13107;51.304;6.866;2024-02-26T21:39:10;6.20;99.90
25128;DHT22;13107;51.304;6.866;2024-02-26T21:43:13;6.20;99.90
25128;DHT22;13107;51.304;6.866;2024-02-26T21:47:16;6.20;99.90
25128;DHT22;13107;51.304;6.866;2024-02-26T21:51:18;6.10;99.90
25128;DHT22;13107;51.304;6.866;2024-02-26T21:55:20;6.20;99.90
25128;DHT22;13107;51.304;6.866;2024-02-26T21:59:21;6.10;99.90
25128;DHT22;13107;51.304;6.866;2024-02-26T22:03:23;6.10;99.90
25128;DHT22;13107;51.304;6.866;2024-02-26T22:07:25;6.00;99.90
25128;DHT22;13107;51.304;6.866;2024-02-26T22:11:29;6.10;99.90
25128;DHT22;13107;51.304;6.866;2024-02-26T22:15:30;6.10;99.90
25128;DHT22;13107;51.304;6.866;2024-02-26T22:19:32;6.00;99.90
25128;DHT22;13107;51.304;6.866;2024-02-26T22:23:34;6.00;99.90
25128;DHT22;13107;51.304;6.866;2024-02-26T22:27:36;6.00;99.90
25128;DHT22;13107;51.304;6.866;2024-02-26T22:31:39;5.90;99.90
25128;DHT22;13107;51.304;6.866;2024-02-26T22:35:41;5.90;99.90
25128;DHT22;13107;51.304;6.866;2024-02-26T22:39:43;5.90;99.90
25128;DHT22;13107;51.304;6.866;2024-02-26T22:43:45;5.90;99.90
25128;DHT22;13107;51.304;6.866;2024-02-26T22:47:47;5.80;99.90
25128;DHT22;13107;51.304;6.866;2024-02-26T22:51:49;5.70;99.90
25128;DHT22;13107;51.304;6.866;2024-02-26T22:55:51;5.70;99.90
25128;DHT22;13107;51.304;6.866;2024-02-26T22:59:53;5.60;99.90
25128;DHT22;13107;51.304;6.866;2024-02-26T23:03:55;5.60;99.90
25128;DHT22;13107;51.304;6.866;2024-02-26T23:07:58;5.70;99.90
25128;DHT22;13107;51.304;6.866;2024-02-26T23:12:00;5.60;99.90
25128;DHT22;13107;51.304;6.866;2024-02-26T23:16:02;5.70;99.90
25128;DHT22;13107;51.304;6.866;2024-02-26T23:20:05;5.70;99.90
25128;DHT22;13107;51.304;6.866;2024-02-26T23:24:10;5.60;99.90
25128;DHT22;13107;51.304;6.866;2024-02-26T23:28:12;5.60;99.90
25128;DHT22;13107;51.304;6.866;2024-02-26T23:32:14;5.70;99.90
25128;DHT22;13107;51.304;6.866;2024-02-26T23:36:16;5.70;99.90
25128;DHT22;13107;51.304;6.866;2024-02-26T23:40:18;5.60;99.90
25128;DHT22;13107;51.304;6.866;2024-02-26T23:44:19;5.60;99.90
25128;DHT22;13107;51.304;6.866;2024-02-26T23:48:21;5.60;99.90
25128;DHT22;13107;51.304;6.866;2024-02-26T23:52:23;5.60;99.90
25128;DHT22;13107;51.304;6.866;2024-02-26T23:56:25;5.60;99.90
